sensor_id;sensor_type;location;lat;lon;timestamp;P1;durP1;ratioP1;P2;durP2;ratioP2
7336;SDS011;54510;42.016;23.098;2023-08-12T00:02:12;4.15;;;2.30;;
7336;SDS011;54510;42.016;23.098;2023-08-12T00:04:37;3.47;;;2.08;;
7336;SDS011;54510;42.016;23.098;2023-08-12T00:07:03;3.97;;;2.78;;
7336;SDS011;54510;42.016;23.098;2023-08-12T00:09:28;3.47;;;2.30;;
7336;SDS011;54510;42.016;23.098;2023-08-12T00:11:54;2.60;;;2.00;;
7336;SDS011;54510;42.016;23.098;2023-08-12T00:14:19;5.50;;;2.08;;
7336;SDS011;54510;42.016;23.098;2023-08-12T00:16:44;4.05;;;2.60;;
7336;SDS011;54510;42.016;23.098;2023-08-12T00:19:10;2.20;;;1.90;;
7336;SDS011;54510;42.016;23.098;2023-08-12T00:21:35;3.42;;;2.38;;
7336;SDS011;54510;42.016;23.098;2023-08-12T00:24:01;4.65;;;1.98;;
7336;SDS011;54510;42.016;23.098;2023-08-12T00:26:26;3.42;;;2.00;;
7336;SDS011;54510;42.016;23.098;2023-08-12T00:28:52;4.10;;;2.60;;
7336;SDS011;54510;42.016;23.098;2023-08-12T00:31:17;3.20;;;2.00;;
7336;SDS011;54510;42.016;23.098;2023-08-12T00:33:43;5.90;;;2.40;;
7336;SDS011;54510;42.016;23.098;2023-08-12T00:36:08;4.18;;;2.17;;
7336;SDS011;54510;42.016;23.098;2023-08-12T00:38:34;3.95;;;2.85;;
7336;SDS011;54510;42.016;23.098;2023-08-12T00:40:59;3.50;;;2.40;;
7336;SDS011;54510;42.016;23.098;2023-08-12T00:43:24;6.15;;;2.80;;
7336;SDS011;54510;42.016;23.098;2023-08-12T00:45:50;2.90;;;2.28;;
7336;SDS011;54510;42.016;23.098;2023-08-12T00:48:16;6.32;;;2.78;;
7336;SDS011;54510;42.016;23.098;2023-08-12T00:50:43;4.18;;;2.20;;
7336;SDS011;54510;42.016;23.098;2023-08-12T00:53:09;3.03;;;2.35;;
7336;SDS011;54510;42.016;23.098;2023-08-12T00:55:36;2.90;;;2.13;;
7336;SDS011;54510;42.016;23.098;2023-08-12T00:58:01;2.75;;;2.17;;
7336;SDS011;54510;42.016;23.098;2023-08-12T01:00:28;3.45;;;2.28;;
7336;SDS011;54510;42.016;23.098;2023-08-12T01:02:53;11.45;;;2.70;;
7336;SDS011;54510;42.016;23.098;2023-08-12T01:05:19;3.25;;;2.38;;
7336;SDS011;54510;42.016;23.098;2023-08-12T01:07:45;2.60;;;2.08;;
7336;SDS011;54510;42.016;23.098;2023-08-12T01:10:11;3.17;;;1.90;;
7336;SDS011;54510;42.016;23.098;2023-08-12T01:12:41;6.50;;;2.42;;
7336;SDS011;54510;42.016;23.098;2023-08-12T01:15:15;3.95;;;2.33;;
7336;SDS011;54510;42.016;23.098;2023-08-12T01:17:46;4.07;;;2.40;;
7336;SDS011;54510;42.016;23.098;2023-08-12T01:20:17;3.60;;;2.88;;
7336;SDS011;54510;42.016;23.098;2023-08-12T01:22:49;2.50;;;2.10;;
7336;SDS011;54510;42.016;23.098;2023-08-12T01:25:27;9.07;;;2.80;;
7336;SDS011;54510;42.016;23.098;2023-08-12T01:27:53;3.70;;;2.15;;
7336;SDS011;54510;42.016;23.098;2023-08-12T01:30:18;3.83;;;2.38;;
7336;SDS011;54510;42.016;23.098;2023-08-12T01:32:55;5.20;;;2.97;;
7336;SDS011;54510;42.016;23.098;2023-08-12T01:35:24;3.30;;;2.38;;
7336;SDS011;54510;42.016;23.098;2023-08-12T01:37:57;5.28;;;2.35;;
7336;SDS011;54510;42.016;23.098;2023-08-12T01:40:23;4.97;;;2.33;;
7336;SDS011;54510;42.016;23.098;2023-08-12T01:42:49;4.97;;;2.50;;
7336;SDS011;54510;42.016;23.098;2023-08-12T01:45:17;4.00;;;2.88;;
7336;SDS011;54510;42.016;23.098;2023-08-12T01:47:44;2.90;;;2.60;;
7336;SDS011;54510;42.016;23.098;2023-08-12T01:50:09;7.20;;;2.90;;
7336;SDS011;54510;42.016;23.098;2023-08-12T01:52:35;4.00;;;2.60;;
7336;SDS011;54510;42.016;23.098;2023-08-12T01:55:01;6.13;;;2.58;;
7336;SDS011;54510;42.016;23.098;2023-08-12T01:57:26;3.53;;;2.10;;
7336;SDS011;54510;42.016;23.098;2023-08-12T01:59:52;3.22;;;2.22;;
7336;SDS011;54510;42.016;23.098;2023-08-12T02:02:17;5.18;;;2.50;;
7336;SDS011;54510;42.016;23.098;2023-08-12T02:04:42;3.58;;;2.20;;
7336;SDS011;54510;42.016;23.098;2023-08-12T02:07:09;5.90;;;2.78;;
7336;SDS011;54510;42.016;23.098;2023-08-12T02:09:34;3.15;;;2.50;;
7336;SDS011;54510;42.016;23.098;2023-08-12T02:12:00;9.32;;;2.40;;
7336;SDS011;54510;42.016;23.098;2023-08-12T02:14:25;3.53;;;2.10;;
7336;SDS011;54510;42.016;23.098;2023-08-12T02:16:50;3.95;;;2.42;;
7336;SDS011;54510;42.016;23.098;2023-08-12T02:19:16;4.38;;;2.80;;
7336;SDS011;54510;42.016;23.098;2023-08-12T02:21:41;3.72;;;2.53;;
7336;SDS011;54510;42.016;23.098;2023-08-12T02:24:07;4.18;;;2.67;;
7336;SDS011;54510;42.016;23.098;2023-08-12T02:26:33;3.97;;;2.60;;
7336;SDS011;54510;42.016;23.098;2023-08-12T02:28:59;6.25;;;2.47;;
7336;SDS011;54510;42.016;23.098;2023-08-12T02:31:24;3.92;;;2.35;;
7336;SDS011;54510;42.016;23.098;2023-08-12T02:33:50;3.17;;;2.05;;
7336;SDS011;54510;42.016;23.098;2023-08-12T02:36:15;2.97;;;2.20;;
7336;SDS011;54510;42.016;23.098;2023-08-12T02:38:41;3.63;;;2.30;;
7336;SDS011;54510;42.016;23.098;2023-08-12T02:41:06;4.97;;;2.63;;
7336;SDS011;54510;42.016;23.098;2023-08-12T02:43:32;5.63;;;3.08;;
7336;SDS011;54510;42.016;23.098;2023-08-12T02:45:57;2.83;;;2.55;;
7336;SDS011;54510;42.016;23.098;2023-08-12T02:48:23;3.92;;;2.33;;
7336;SDS011;54510;42.016;23.098;2023-08-12T02:50:48;3.78;;;2.88;;
7336;SDS011;54510;42.016;23.098;2023-08-12T02:53:14;3.90;;;3.03;;
7336;SDS011;54510;42.016;23.098;2023-08-12T02:55:40;5.32;;;2.70;;
7336;SDS011;54510;42.016;23.098;2023-08-12T02:58:05;4.68;;;2.92;;
7336;SDS011;54510;42.016;23.098;2023-08-12T03:00:31;5.53;;;3.13;;
7336;SDS011;54510;42.016;23.098;2023-08-12T03:02:56;4.70;;;3.28;;
7336;SDS011;54510;42.016;23.098;2023-08-12T03:05:22;7.25;;;2.60;;
7336;SDS011;54510;42.016;23.098;2023-08-12T03:07:48;5.45;;;2.80;;
7336;SDS011;54510;42.016;23.098;2023-08-12T03:10:14;3.88;;;2.70;;
7336;SDS011;54510;42.016;23.098;2023-08-12T03:12:39;6.93;;;3.13;;
7336;SDS011;54510;42.016;23.098;2023-08-12T03:15:06;3.67;;;2.67;;
7336;SDS011;54510;42.016;23.098;2023-08-12T03:17:32;4.80;;;3.05;;
7336;SDS011;54510;42.016;23.098;2023-08-12T03:19:57;5.35;;;3.10;;
7336;SDS011;54510;42.016;23.098;2023-08-12T03:22:27;9.00;;;3.20;;
7336;SDS011;54510;42.016;23.098;2023-08-12T03:24:52;9.43;;;3.50;;
7336;SDS011;54510;42.016;23.098;2023-08-12T03:27:18;5.72;;;2.78;;
7336;SDS011;54510;42.016;23.098;2023-08-12T03:29:43;4.15;;;3.17;;
7336;SDS011;54510;42.016;23.098;2023-08-12T03:32:08;11.07;;;3.83;;
7336;SDS011;54510;42.016;23.098;2023-08-12T03:34:34;3.70;;;3.00;;
7336;SDS011;54510;42.016;23.098;2023-08-12T03:36:59;4.82;;;2.90;;
7336;SDS011;54510;42.016;23.098;2023-08-12T03:39:25;6.15;;;3.15;;
7336;SDS011;54510;42.016;23.098;2023-08-12T03:41:50;4.05;;;2.75;;
7336;SDS011;54510;42.016;23.098;2023-08-12T03:44:16;5.90;;;3.33;;
7336;SDS011;54510;42.016;23.098;2023-08-12T03:46:41;5.68;;;3.30;;
7336;SDS011;54510;42.016;23.098;2023-08-12T03:49:07;5.13;;;2.72;;
7336;SDS011;54510;42.016;23.098;2023-08-12T03:51:32;5.43;;;3.17;;
7336;SDS011;54510;42.016;23.098;2023-08-12T03:53:58;4.32;;;3.10;;
7336;SDS011;54510;42.016;23.098;2023-08-12T03:56:23;6.25;;;3.03;;
7336;SDS011;54510;42.016;23.098;2023-08-12T03:58:49;10.20;;;3.10;;
7336;SDS011;54510;42.016;23.098;2023-08-12T04:01:14;4.70;;;3.63;;
7336;SDS011;54510;42.016;23.098;2023-08-12T04:03:40;7.82;;;3.65;;
7336;SDS011;54510;42.016;23.098;2023-08-12T04:06:05;4.40;;;2.80;;
7336;SDS011;54510;42.016;23.098;2023-08-12T04:08:30;4.68;;;3.40;;
7336;SDS011;54510;42.016;23.098;2023-08-12T04:10:57;5.30;;;2.85;;
7336;SDS011;54510;42.016;23.098;2023-08-12T04:13:22;4.93;;;3.17;;
7336;SDS011;54510;42.016;23.098;2023-08-12T04:15:48;3.63;;;2.95;;
7336;SDS011;54510;42.016;23.098;2023-08-12T04:18:15;4.65;;;2.92;;
7336;SDS011;54510;42.016;23.098;2023-08-12T04:20:40;4.55;;;3.33;;
7336;SDS011;54510;42.016;23.098;2023-08-12T04:23:06;5.28;;;3.30;;
7336;SDS011;54510;42.016;23.098;2023-08-12T04:25:31;8.25;;;3.47;;
7336;SDS011;54510;42.016;23.098;2023-08-12T04:27:56;8.02;;;3.53;;
7336;SDS011;54510;42.016;23.098;2023-08-12T04:30:23;4.55;;;2.95;;
7336;SDS011;54510;42.016;23.098;2023-08-12T04:32:48;4.80;;;3.53;;
7336;SDS011;54510;42.016;23.098;2023-08-12T04:35:14;4.72;;;3.55;;
7336;SDS011;54510;42.016;23.098;2023-08-12T04:37:39;8.68;;;3.47;;
7336;SDS011;54510;42.016;23.098;2023-08-12T04:40:05;7.97;;;3.53;;
7336;SDS011;54510;42.016;23.098;2023-08-12T04:42:32;9.00;;;3.55;;
7336;SDS011;54510;42.016;23.098;2023-08-12T04:44:58;5.25;;;2.92;;
7336;SDS011;54510;42.016;23.098;2023-08-12T04:47:23;4.32;;;2.92;;
7336;SDS011;54510;42.016;23.098;2023-08-12T04:49:49;5.25;;;3.47;;
7336;SDS011;54510;42.016;23.098;2023-08-12T04:52:14;8.63;;;3.47;;
7336;SDS011;54510;42.016;23.098;2023-08-12T04:54:40;7.80;;;3.63;;
7336;SDS011;54510;42.016;23.098;2023-08-12T04:57:05;5.57;;;3.67;;
7336;SDS011;54510;42.016;23.098;2023-08-12T04:59:30;4.93;;;2.67;;
7336;SDS011;54510;42.016;23.098;2023-08-12T05:01:56;4.82;;;3.03;;
7336;SDS011;54510;42.016;23.098;2023-08-12T05:04:21;4.05;;;3.10;;
7336;SDS011;54510;42.016;23.098;2023-08-12T05:06:47;5.72;;;3.05;;
7336;SDS011;54510;42.016;23.098;2023-08-12T05:09:13;4.40;;;2.90;;
7336;SDS011;54510;42.016;23.098;2023-08-12T05:11:39;4.60;;;3.38;;
7336;SDS011;54510;42.016;23.098;2023-08-12T05:14:05;8.50;;;3.25;;
7336;SDS011;54510;42.016;23.098;2023-08-12T05:16:30;6.40;;;3.40;;
7336;SDS011;54510;42.016;23.098;2023-08-12T05:18:55;6.93;;;3.08;;
7336;SDS011;54510;42.016;23.098;2023-08-12T05:21:21;6.53;;;3.80;;
7336;SDS011;54510;42.016;23.098;2023-08-12T05:23:46;4.15;;;3.10;;
7336;SDS011;54510;42.016;23.098;2023-08-12T05:26:12;5.97;;;3.22;;
7336;SDS011;54510;42.016;23.098;2023-08-12T05:28:38;6.72;;;3.08;;
7336;SDS011;54510;42.016;23.098;2023-08-12T05:31:03;3.63;;;2.85;;
7336;SDS011;54510;42.016;23.098;2023-08-12T05:33:29;6.70;;;3.63;;
7336;SDS011;54510;42.016;23.098;2023-08-12T05:35:54;10.10;;;5.55;;
7336;SDS011;54510;42.016;23.098;2023-08-12T05:38:19;8.70;;;3.70;;
7336;SDS011;54510;42.016;23.098;2023-08-12T05:40:45;4.80;;;3.75;;
7336;SDS011;54510;42.016;23.098;2023-08-12T05:43:10;5.32;;;3.47;;
7336;SDS011;54510;42.016;23.098;2023-08-12T05:45:36;4.93;;;3.28;;
7336;SDS011;54510;42.016;23.098;2023-08-12T05:48:01;4.60;;;3.53;;
7336;SDS011;54510;42.016;23.098;2023-08-12T05:50:27;4.20;;;3.00;;
7336;SDS011;54510;42.016;23.098;2023-08-12T05:52:52;5.13;;;2.90;;
7336;SDS011;54510;42.016;23.098;2023-08-12T05:55:18;4.97;;;2.95;;
7336;SDS011;54510;42.016;23.098;2023-08-12T05:57:43;4.07;;;2.60;;
7336;SDS011;54510;42.016;23.098;2023-08-12T06:00:09;4.22;;;2.78;;
7336;SDS011;54510;42.016;23.098;2023-08-12T06:02:34;4.70;;;2.97;;
7336;SDS011;54510;42.016;23.098;2023-08-12T06:05:00;3.47;;;2.88;;
7336;SDS011;54510;42.016;23.098;2023-08-12T06:07:25;6.18;;;2.85;;
7336;SDS011;54510;42.016;23.098;2023-08-12T06:09:51;3.42;;;2.33;;
7336;SDS011;54510;42.016;23.098;2023-08-12T06:12:16;4.90;;;2.83;;
7336;SDS011;54510;42.016;23.098;2023-08-12T06:14:42;5.65;;;3.03;;
7336;SDS011;54510;42.016;23.098;2023-08-12T06:17:07;3.88;;;2.67;;
7336;SDS011;54510;42.016;23.098;2023-08-12T06:19:32;4.70;;;2.90;;
7336;SDS011;54510;42.016;23.098;2023-08-12T06:21:58;7.45;;;2.97;;
7336;SDS011;54510;42.016;23.098;2023-08-12T06:24:24;5.13;;;2.90;;
7336;SDS011;54510;42.016;23.098;2023-08-12T06:26:49;7.03;;;2.83;;
7336;SDS011;54510;42.016;23.098;2023-08-12T06:29:15;2.92;;;2.10;;
7336;SDS011;54510;42.016;23.098;2023-08-12T06:31:40;4.97;;;2.17;;
7336;SDS011;54510;42.016;23.098;2023-08-12T06:34:06;4.38;;;2.90;;
7336;SDS011;54510;42.016;23.098;2023-08-12T06:36:31;3.80;;;2.17;;
7336;SDS011;54510;42.016;23.098;2023-08-12T06:38:57;3.35;;;2.15;;
7336;SDS011;54510;42.016;23.098;2023-08-12T06:41:22;5.13;;;2.97;;
7336;SDS011;54510;42.016;23.098;2023-08-12T06:43:47;5.20;;;3.33;;
7336;SDS011;54510;42.016;23.098;2023-08-12T06:46:13;7.07;;;2.95;;
7336;SDS011;54510;42.016;23.098;2023-08-12T06:48:38;3.25;;;2.30;;
7336;SDS011;54510;42.016;23.098;2023-08-12T06:51:04;4.25;;;2.25;;
7336;SDS011;54510;42.016;23.098;2023-08-12T06:53:38;3.53;;;2.20;;
7336;SDS011;54510;42.016;23.098;2023-08-12T06:56:04;3.97;;;1.80;;
7336;SDS011;54510;42.016;23.098;2023-08-12T06:58:30;4.80;;;2.35;;
7336;SDS011;54510;42.016;23.098;2023-08-12T07:00:56;7.80;;;2.35;;
7336;SDS011;54510;42.016;23.098;2023-08-12T07:03:22;6.70;;;3.50;;
7336;SDS011;54510;42.016;23.098;2023-08-12T07:05:47;9.52;;;3.40;;
7336;SDS011;54510;42.016;23.098;2023-08-12T07:08:13;4.53;;;2.00;;
7336;SDS011;54510;42.016;23.098;2023-08-12T07:10:39;3.47;;;1.88;;
7336;SDS011;54510;42.016;23.098;2023-08-12T07:13:05;5.40;;;2.33;;
7336;SDS011;54510;42.016;23.098;2023-08-12T07:15:30;3.92;;;2.08;;
7336;SDS011;54510;42.016;23.098;2023-08-12T07:17:56;2.95;;;2.20;;
7336;SDS011;54510;42.016;23.098;2023-08-12T07:20:22;4.28;;;2.55;;
7336;SDS011;54510;42.016;23.098;2023-08-12T07:22:49;3.50;;;2.55;;
7336;SDS011;54510;42.016;23.098;2023-08-12T07:25:14;4.25;;;2.63;;
7336;SDS011;54510;42.016;23.098;2023-08-12T07:27:40;5.78;;;3.22;;
7336;SDS011;54510;42.016;23.098;2023-08-12T07:30:06;2.83;;;2.08;;
7336;SDS011;54510;42.016;23.098;2023-08-12T07:32:33;7.25;;;2.83;;
7336;SDS011;54510;42.016;23.098;2023-08-12T07:34:58;4.82;;;3.28;;
7336;SDS011;54510;42.016;23.098;2023-08-12T07:37:24;6.88;;;2.53;;
7336;SDS011;54510;42.016;23.098;2023-08-12T07:39:50;7.55;;;2.47;;
7336;SDS011;54510;42.016;23.098;2023-08-12T07:42:16;12.98;;;2.33;;
7336;SDS011;54510;42.016;23.098;2023-08-12T07:44:41;7.15;;;2.05;;
7336;SDS011;54510;42.016;23.098;2023-08-12T07:47:06;7.35;;;2.38;;
7336;SDS011;54510;42.016;23.098;2023-08-12T07:49:32;4.07;;;2.80;;
7336;SDS011;54510;42.016;23.098;2023-08-12T07:51:57;5.55;;;2.72;;
7336;SDS011;54510;42.016;23.098;2023-08-12T07:54:23;14.20;;;3.92;;
7336;SDS011;54510;42.016;23.098;2023-08-12T07:56:48;9.25;;;3.58;;
7336;SDS011;54510;42.016;23.098;2023-08-12T07:59:13;7.72;;;2.70;;
7336;SDS011;54510;42.016;23.098;2023-08-12T08:01:39;4.40;;;2.40;;
7336;SDS011;54510;42.016;23.098;2023-08-12T08:04:05;5.20;;;2.45;;
7336;SDS011;54510;42.016;23.098;2023-08-12T08:06:31;4.68;;;2.20;;
7336;SDS011;54510;42.016;23.098;2023-08-12T08:08:56;3.05;;;2.40;;
7336;SDS011;54510;42.016;23.098;2023-08-12T08:11:23;5.45;;;2.00;;
7336;SDS011;54510;42.016;23.098;2023-08-12T08:13:49;2.92;;;1.90;;
7336;SDS011;54510;42.016;23.098;2023-08-12T08:16:14;5.57;;;2.88;;
7336;SDS011;54510;42.016;23.098;2023-08-12T08:18:39;5.65;;;2.50;;
7336;SDS011;54510;42.016;23.098;2023-08-12T08:21:05;3.92;;;2.38;;
7336;SDS011;54510;42.016;23.098;2023-08-12T08:23:30;6.70;;;2.70;;
7336;SDS011;54510;42.016;23.098;2023-08-12T08:25:56;6.10;;;3.30;;
7336;SDS011;54510;42.016;23.098;2023-08-12T08:28:21;5.03;;;2.42;;
7336;SDS011;54510;42.016;23.098;2023-08-12T08:30:46;4.93;;;2.50;;
7336;SDS011;54510;42.016;23.098;2023-08-12T08:33:12;5.55;;;2.47;;
7336;SDS011;54510;42.016;23.098;2023-08-12T08:35:37;6.05;;;2.83;;
7336;SDS011;54510;42.016;23.098;2023-08-12T08:38:03;8.35;;;2.75;;
7336;SDS011;54510;42.016;23.098;2023-08-12T08:40:28;3.78;;;2.35;;
7336;SDS011;54510;42.016;23.098;2023-08-12T08:42:54;4.78;;;3.25;;
7336;SDS011;54510;42.016;23.098;2023-08-12T08:45:26;5.75;;;2.65;;
7336;SDS011;54510;42.016;23.098;2023-08-12T08:47:54;6.15;;;2.83;;
7336;SDS011;54510;42.016;23.098;2023-08-12T08:50:20;8.13;;;4.20;;
7336;SDS011;54510;42.016;23.098;2023-08-12T08:52:46;10.25;;;4.03;;
7336;SDS011;54510;42.016;23.098;2023-08-12T08:55:12;6.28;;;4.25;;
7336;SDS011;54510;42.016;23.098;2023-08-12T08:57:39;3.10;;;2.53;;
7336;SDS011;54510;42.016;23.098;2023-08-12T09:00:08;8.38;;;3.20;;
7336;SDS011;54510;42.016;23.098;2023-08-12T09:02:35;4.03;;;2.50;;
7336;SDS011;54510;42.016;23.098;2023-08-12T09:05:01;2.95;;;2.15;;
7336;SDS011;54510;42.016;23.098;2023-08-12T09:07:28;6.90;;;2.80;;
7336;SDS011;54510;42.016;23.098;2023-08-12T09:09:56;6.55;;;3.85;;
7336;SDS011;54510;42.016;23.098;2023-08-12T09:12:23;5.40;;;3.10;;
7336;SDS011;54510;42.016;23.098;2023-08-12T09:14:49;5.57;;;2.45;;
7336;SDS011;54510;42.016;23.098;2023-08-12T09:17:15;3.15;;;2.55;;
7336;SDS011;54510;42.016;23.098;2023-08-12T09:19:41;3.05;;;1.80;;
7336;SDS011;54510;42.016;23.098;2023-08-12T09:22:07;3.78;;;2.30;;
7336;SDS011;54510;42.016;23.098;2023-08-12T09:24:35;3.60;;;2.28;;
7336;SDS011;54510;42.016;23.098;2023-08-12T09:27:01;3.88;;;2.35;;
7336;SDS011;54510;42.016;23.098;2023-08-12T09:29:34;2.55;;;1.55;;
7336;SDS011;54510;42.016;23.098;2023-08-12T09:32:10;5.70;;;2.58;;
7336;SDS011;54510;42.016;23.098;2023-08-12T09:34:37;5.45;;;2.75;;
7336;SDS011;54510;42.016;23.098;2023-08-12T09:37:03;6.93;;;4.57;;
7336;SDS011;54510;42.016;23.098;2023-08-12T09:39:28;5.88;;;3.10;;
7336;SDS011;54510;42.016;23.098;2023-08-12T09:41:55;4.75;;;2.30;;
7336;SDS011;54510;42.016;23.098;2023-08-12T09:44:21;3.67;;;2.40;;
7336;SDS011;54510;42.016;23.098;2023-08-12T09:46:47;8.90;;;5.65;;
7336;SDS011;54510;42.016;23.098;2023-08-12T09:49:13;3.42;;;2.30;;
7336;SDS011;54510;42.016;23.098;2023-08-12T09:51:38;4.28;;;2.60;;
7336;SDS011;54510;42.016;23.098;2023-08-12T09:54:08;4.93;;;2.47;;
7336;SDS011;54510;42.016;23.098;2023-08-12T09:56:36;6.43;;;2.65;;
7336;SDS011;54510;42.016;23.098;2023-08-12T09:59:07;3.30;;;2.47;;
7336;SDS011;54510;42.016;23.098;2023-08-12T10:01:34;5.45;;;2.00;;
7336;SDS011;54510;42.016;23.098;2023-08-12T10:04:00;5.50;;;3.60;;
7336;SDS011;54510;42.016;23.098;2023-08-12T10:06:26;5.43;;;3.63;;
7336;SDS011;54510;42.016;23.098;2023-08-12T10:08:52;3.33;;;2.47;;
7336;SDS011;54510;42.016;23.098;2023-08-12T10:11:18;12.10;;;2.67;;
7336;SDS011;54510;42.016;23.098;2023-08-12T10:13:44;5.25;;;2.95;;
7336;SDS011;54510;42.016;23.098;2023-08-12T10:16:09;6.30;;;2.60;;
7336;SDS011;54510;42.016;23.098;2023-08-12T10:18:36;5.47;;;2.80;;
7336;SDS011;54510;42.016;23.098;2023-08-12T10:21:03;5.05;;;2.90;;
7336;SDS011;54510;42.016;23.098;2023-08-12T10:23:30;4.07;;;2.70;;
7336;SDS011;54510;42.016;23.098;2023-08-12T10:25:57;6.25;;;4.10;;
7336;SDS011;54510;42.016;23.098;2023-08-12T10:28:24;3.13;;;2.20;;
7336;SDS011;54510;42.016;23.098;2023-08-12T10:30:50;3.30;;;2.50;;
7336;SDS011;54510;42.016;23.098;2023-08-12T10:33:17;2.40;;;1.88;;
7336;SDS011;54510;42.016;23.098;2023-08-12T10:35:47;4.80;;;2.22;;
7336;SDS011;54510;42.016;23.098;2023-08-12T10:38:20;2.63;;;1.90;;
7336;SDS011;54510;42.016;23.098;2023-08-12T10:40:46;4.03;;;1.98;;
7336;SDS011;54510;42.016;23.098;2023-08-12T10:43:12;7.50;;;2.05;;
7336;SDS011;54510;42.016;23.098;2023-08-12T10:45:42;2.67;;;1.88;;
7336;SDS011;54510;42.016;23.098;2023-08-12T10:48:16;2.42;;;1.50;;
7336;SDS011;54510;42.016;23.098;2023-08-12T10:50:52;4.88;;;2.13;;
7336;SDS011;54510;42.016;23.098;2023-08-12T10:53:26;3.42;;;1.83;;
7336;SDS011;54510;42.016;23.098;2023-08-12T10:56:01;5.72;;;2.05;;
7336;SDS011;54510;42.016;23.098;2023-08-12T10:58:34;2.75;;;1.88;;
7336;SDS011;54510;42.016;23.098;2023-08-12T11:01:08;3.40;;;2.03;;
7336;SDS011;54510;42.016;23.098;2023-08-12T11:03:45;3.55;;;1.55;;
7336;SDS011;54510;42.016;23.098;2023-08-12T11:06:12;6.47;;;3.03;;
7336;SDS011;54510;42.016;23.098;2023-08-12T11:08:47;3.80;;;2.45;;
7336;SDS011;54510;42.016;23.098;2023-08-12T11:11:22;7.05;;;2.95;;
7336;SDS011;54510;42.016;23.098;2023-08-12T11:13:57;2.97;;;2.33;;
7336;SDS011;54510;42.016;23.098;2023-08-12T11:16:35;3.00;;;2.00;;
7336;SDS011;54510;42.016;23.098;2023-08-12T11:19:02;3.33;;;2.05;;
7336;SDS011;54510;42.016;23.098;2023-08-12T11:21:28;2.65;;;1.85;;
7336;SDS011;54510;42.016;23.098;2023-08-12T11:23:54;1.85;;;1.42;;
7336;SDS011;54510;42.016;23.098;2023-08-12T11:26:19;6.13;;;2.47;;
7336;SDS011;54510;42.016;23.098;2023-08-12T11:28:48;3.65;;;2.15;;
7336;SDS011;54510;42.016;23.098;2023-08-12T11:31:13;6.45;;;2.53;;
7336;SDS011;54510;42.016;23.098;2023-08-12T11:33:38;2.50;;;1.90;;
7336;SDS011;54510;42.016;23.098;2023-08-12T11:36:04;2.90;;;1.92;;
7336;SDS011;54510;42.016;23.098;2023-08-12T11:38:30;2.38;;;1.98;;
7336;SDS011;54510;42.016;23.098;2023-08-12T11:40:56;2.08;;;1.50;;
7336;SDS011;54510;42.016;23.098;2023-08-12T11:43:22;3.75;;;1.60;;
7336;SDS011;54510;42.016;23.098;2023-08-12T11:45:48;4.47;;;1.80;;
7336;SDS011;54510;42.016;23.098;2023-08-12T11:48:13;4.47;;;2.67;;
7336;SDS011;54510;42.016;23.098;2023-08-12T11:50:39;5.28;;;1.77;;
7336;SDS011;54510;42.016;23.098;2023-08-12T11:53:05;3.20;;;1.77;;
7336;SDS011;54510;42.016;23.098;2023-08-12T11:55:30;2.55;;;1.38;;
7336;SDS011;54510;42.016;23.098;2023-08-12T11:57:57;2.60;;;1.58;;
7336;SDS011;54510;42.016;23.098;2023-08-12T12:00:23;2.85;;;1.88;;
7336;SDS011;54510;42.016;23.098;2023-08-12T12:02:54;4.15;;;1.80;;
7336;SDS011;54510;42.016;23.098;2023-08-12T12:05:21;2.67;;;1.90;;
7336;SDS011;54510;42.016;23.098;2023-08-12T12:07:48;2.20;;;1.80;;
7336;SDS011;54510;42.016;23.098;2023-08-12T12:10:18;6.22;;;3.80;;
7336;SDS011;54510;42.016;23.098;2023-08-12T12:13:02;2.03;;;1.70;;
7336;SDS011;54510;42.016;23.098;2023-08-12T12:15:29;6.63;;;2.03;;
7336;SDS011;54510;42.016;23.098;2023-08-12T12:17:54;3.83;;;2.30;;
7336;SDS011;54510;42.016;23.098;2023-08-12T12:20:20;3.17;;;1.65;;
7336;SDS011;54510;42.016;23.098;2023-08-12T12:22:46;2.05;;;1.65;;
7336;SDS011;54510;42.016;23.098;2023-08-12T12:25:13;4.72;;;1.98;;
7336;SDS011;54510;42.016;23.098;2023-08-12T12:27:41;3.17;;;1.90;;
7336;SDS011;54510;42.016;23.098;2023-08-12T12:30:07;3.85;;;2.50;;
7336;SDS011;54510;42.016;23.098;2023-08-12T12:32:34;4.82;;;1.83;;
7336;SDS011;54510;42.016;23.098;2023-08-12T12:35:00;4.93;;;2.00;;
7336;SDS011;54510;42.016;23.098;2023-08-12T12:37:25;2.97;;;1.90;;
7336;SDS011;54510;42.016;23.098;2023-08-12T12:39:50;3.65;;;2.10;;
7336;SDS011;54510;42.016;23.098;2023-08-12T12:42:16;3.60;;;1.80;;
7336;SDS011;54510;42.016;23.098;2023-08-12T12:44:41;3.08;;;1.88;;
7336;SDS011;54510;42.016;23.098;2023-08-12T12:47:06;3.47;;;1.95;;
7336;SDS011;54510;42.016;23.098;2023-08-12T12:49:32;4.65;;;1.42;;
7336;SDS011;54510;42.016;23.098;2023-08-12T12:51:58;4.53;;;1.88;;
7336;SDS011;54510;42.016;23.098;2023-08-12T12:54:23;2.90;;;1.73;;
7336;SDS011;54510;42.016;23.098;2023-08-12T12:56:49;2.67;;;1.50;;
7336;SDS011;54510;42.016;23.098;2023-08-12T12:59:14;2.97;;;2.42;;
7336;SDS011;54510;42.016;23.098;2023-08-12T13:01:43;3.53;;;1.83;;
7336;SDS011;54510;42.016;23.098;2023-08-12T13:04:08;3.65;;;1.65;;
7336;SDS011;54510;42.016;23.098;2023-08-12T13:06:34;2.90;;;1.85;;
7336;SDS011;54510;42.016;23.098;2023-08-12T13:09:00;2.72;;;1.70;;
7336;SDS011;54510;42.016;23.098;2023-08-12T13:11:28;2.63;;;1.95;;
7336;SDS011;54510;42.016;23.098;2023-08-12T13:13:54;2.63;;;1.67;;
7336;SDS011;54510;42.016;23.098;2023-08-12T13:16:20;6.28;;;1.77;;
7336;SDS011;54510;42.016;23.098;2023-08-12T13:18:45;2.15;;;1.52;;
7336;SDS011;54510;42.016;23.098;2023-08-12T13:21:11;2.63;;;1.52;;
7336;SDS011;54510;42.016;23.098;2023-08-12T13:23:36;2.72;;;1.90;;
7336;SDS011;54510;42.016;23.098;2023-08-12T13:26:02;3.25;;;2.10;;
7336;SDS011;54510;42.016;23.098;2023-08-12T13:28:27;5.93;;;2.10;;
7336;SDS011;54510;42.016;23.098;2023-08-12T13:30:53;5.38;;;2.35;;
7336;SDS011;54510;42.016;23.098;2023-08-12T13:33:18;3.97;;;2.40;;
7336;SDS011;54510;42.016;23.098;2023-08-12T13:35:43;2.55;;;1.60;;
7336;SDS011;54510;42.016;23.098;2023-08-12T13:38:09;3.03;;;1.85;;
7336;SDS011;54510;42.016;23.098;2023-08-12T13:40:34;3.80;;;1.75;;
7336;SDS011;54510;42.016;23.098;2023-08-12T13:43:00;2.75;;;1.60;;
7336;SDS011;54510;42.016;23.098;2023-08-12T13:45:25;3.53;;;1.63;;
7336;SDS011;54510;42.016;23.098;2023-08-12T13:47:51;2.38;;;1.75;;
7336;SDS011;54510;42.016;23.098;2023-08-12T13:50:16;3.03;;;1.55;;
7336;SDS011;54510;42.016;23.098;2023-08-12T13:52:42;2.10;;;1.33;;
7336;SDS011;54510;42.016;23.098;2023-08-12T13:55:08;2.25;;;1.67;;
7336;SDS011;54510;42.016;23.098;2023-08-12T13:57:34;2.10;;;1.45;;
7336;SDS011;54510;42.016;23.098;2023-08-12T13:59:59;2.25;;;1.55;;
7336;SDS011;54510;42.016;23.098;2023-08-12T14:02:25;2.15;;;1.30;;
7336;SDS011;54510;42.016;23.098;2023-08-12T14:04:50;3.97;;;1.67;;
7336;SDS011;54510;42.016;23.098;2023-08-12T14:07:16;3.08;;;1.38;;
7336;SDS011;54510;42.016;23.098;2023-08-12T14:09:41;4.38;;;1.52;;
7336;SDS011;54510;42.016;23.098;2023-08-12T14:12:07;2.92;;;1.40;;
7336;SDS011;54510;42.016;23.098;2023-08-12T14:14:32;3.00;;;1.50;;
7336;SDS011;54510;42.016;23.098;2023-08-12T14:16:58;3.33;;;1.73;;
7336;SDS011;54510;42.016;23.098;2023-08-12T14:19:23;2.17;;;1.48;;
7336;SDS011;54510;42.016;23.098;2023-08-12T14:21:49;2.42;;;1.40;;
7336;SDS011;54510;42.016;23.098;2023-08-12T14:24:14;3.90;;;1.77;;
7336;SDS011;54510;42.016;23.098;2023-08-12T14:26:39;3.10;;;1.70;;
7336;SDS011;54510;42.016;23.098;2023-08-12T14:29:05;3.80;;;1.83;;
7336;SDS011;54510;42.016;23.098;2023-08-12T14:31:31;2.30;;;1.35;;
7336;SDS011;54510;42.016;23.098;2023-08-12T14:33:56;5.28;;;1.60;;
7336;SDS011;54510;42.016;23.098;2023-08-12T14:36:22;2.85;;;1.60;;
7336;SDS011;54510;42.016;23.098;2023-08-12T14:38:49;5.43;;;2.22;;
7336;SDS011;54510;42.016;23.098;2023-08-12T14:41:15;4.25;;;2.38;;
7336;SDS011;54510;42.016;23.098;2023-08-12T14:43:40;2.15;;;1.63;;